createdAt,value
2017-06-12T00:00:37.894Z,100888.79
2017-06-12T00:03:05.457Z,100901.22
2017-06-12T00:05:32.978Z,100887.59
2017-06-12T00:08:00.534Z,100885.19
2017-06-12T00:10:28.063Z,100876.38
2017-06-12T00:12:55.587Z,100879.34
2017-06-12T00:15:23.162Z,100875.51
2017-06-12T00:17:50.679Z,100880.55
2017-06-12T00:20:18.227Z,100861.88
2017-06-12T00:22:45.742Z,100865.89
2017-06-12T00:25:13.359Z,100873.64
2017-06-12T00:27:40.874Z,100874.33
2017-06-12T00:30:08.430Z,100866.39
2017-06-12T00:32:35.938Z,100873.94
2017-06-12T00:35:03.542Z,100872.49
2017-06-12T00:37:31.063Z,100881.40
2017-06-12T00:39:58.659Z,100878.76
2017-06-12T00:42:26.207Z,100880.37
2017-06-12T00:44:53.716Z,100873.56
2017-06-12T00:47:21.268Z,100879.22
2017-06-12T00:49:48.797Z,100873.06
2017-06-12T00:52:16.365Z,100880.37
2017-06-12T00:54:43.873Z,100877.80
2017-06-12T00:57:11.375Z,100873.94
2017-06-12T00:59:39.015Z,100870.05
2017-06-12T01:02:06.551Z,100867.00
2017-06-12T01:04:34.111Z,100863.38
2017-06-12T01:07:01.710Z,100863.34
2017-06-12T01:09:29.279Z,100863.02
2017-06-12T01:11:56.803Z,100864.30
2017-06-12T01:14:24.385Z,100865.74
2017-06-12T01:16:51.968Z,100861.27
2017-06-12T01:19:19.519Z,100866.72
2017-06-12T01:22:07.839Z,100861.92
2017-06-12T01:24:35.364Z,100864.88
2017-06-12T01:27:02.930Z,100864.40
2017-06-12T01:29:30.543Z,100862.40
2017-06-12T01:31:58.305Z,100868.52
2017-06-12T01:34:25.864Z,100865.00
2017-06-12T01:36:53.382Z,100867.91
2017-06-12T01:39:20.951Z,100876.53
2017-06-12T01:41:48.590Z,100883.41
2017-06-12T01:44:16.110Z,100891.66
2017-06-12T01:46:43.868Z,100893.89
2017-06-12T01:49:11.379Z,100907.42
2017-06-12T01:51:38.947Z,100911.52
2017-06-12T01:54:06.450Z,100911.06
2017-06-12T01:56:33.954Z,100907.31
2017-06-12T01:59:01.507Z,100910.42
2017-06-12T02:01:29.023Z,100905.92
2017-06-12T02:03:56.581Z,100926.48
2017-06-12T02:06:24.130Z,100932.63
2017-06-12T02:08:51.868Z,100928.48
2017-06-12T02:11:19.399Z,100930.77
2017-06-12T02:13:46.994Z,100934.72
2017-06-12T02:16:14.548Z,100938.22
2017-06-12T02:18:42.067Z,100939.27
2017-06-12T02:21:09.643Z,100938.47
2017-06-12T02:23:37.155Z,100930.61
2017-06-12T02:26:04.659Z,100927.94
2017-06-12T02:28:32.210Z,100928.57
2017-06-12T02:30:59.717Z,100934.27
2017-06-12T02:33:27.267Z,100933.77
2017-06-12T02:35:54.804Z,100922.70
2017-06-12T02:38:22.394Z,100923.25
2017-06-12T02:40:49.927Z,100935.25
2017-06-12T02:43:17.444Z,100928.99
2017-06-12T02:45:44.993Z,100937.79
2017-06-12T02:48:12.522Z,100932.02
2017-06-12T02:50:40.095Z,100935.88
2017-06-12T02:53:07.630Z,100947.89
2017-06-12T02:55:35.192Z,100952.27
2017-06-12T02:58:02.695Z,100951.56
2017-06-12T03:00:30.249Z,100946.97
2017-06-12T03:02:57.873Z,100953.94
2017-06-12T03:05:25.450Z,100953.20
2017-06-12T03:07:53.170Z,100941.17
2017-06-12T03:10:32.349Z,100949.52
2017-06-12T03:12:59.926Z,100952.75
2017-06-12T03:15:27.443Z,100955.50
2017-06-12T03:17:55.321Z,100954.69
2017-06-12T03:20:22.835Z,100959.24
2017-06-12T03:22:50.359Z,100964.17
2017-06-12T03:25:17.951Z,100964.42
2017-06-12T03:27:45.470Z,100952.44
2017-06-12T03:30:13.018Z,100959.48
2017-06-12T03:32:40.568Z,100969.70
2017-06-12T03:35:08.145Z,100968.73
2017-06-12T03:37:35.663Z,100971.28
2017-06-12T03:40:03.171Z,100967.09
2017-06-12T03:42:30.891Z,100975.00
2017-06-12T03:44:58.427Z,100975.66
2017-06-12T03:47:26.068Z,100971.94
2017-06-12T03:49:53.592Z,100979.95
2017-06-12T03:52:21.101Z,100982.22
2017-06-12T03:54:48.718Z,100986.61
2017-06-12T03:57:16.320Z,100989.71
2017-06-12T03:59:43.987Z,100992.61
2017-06-12T04:02:11.516Z,100995.27
2017-06-12T04:04:39.083Z,100988.72
2017-06-12T04:07:06.631Z,100987.70
2017-06-12T04:09:34.194Z,100989.48
2017-06-12T04:12:01.774Z,100992.48
2017-06-12T04:14:29.296Z,100984.58
2017-06-12T04:16:56.855Z,101001.07
2017-06-12T04:19:24.360Z,100993.17
2017-06-12T04:21:51.919Z,100998.03
2017-06-12T04:24:19.446Z,101003.66
2017-06-12T04:26:46.958Z,101008.26
2017-06-12T04:29:14.517Z,101009.66
2017-06-12T04:31:42.042Z,100996.69
2017-06-12T04:34:09.595Z,101002.14
2017-06-12T04:36:37.146Z,101003.16
2017-06-12T04:39:04.720Z,101004.66
2017-06-12T04:41:32.230Z,101007.22
2017-06-12T04:43:59.731Z,101000.78
2017-06-12T04:46:27.275Z,101006.87
2017-06-12T04:48:54.787Z,101005.63
2017-06-12T04:51:22.385Z,101000.41
2017-06-12T04:53:49.951Z,101001.16
2017-06-12T04:56:17.467Z,100998.03
2017-06-12T04:58:45.014Z,101004.57
2017-06-12T05:01:12.519Z,101001.38
2017-06-12T05:03:40.079Z,100996.95
2017-06-12T05:06:07.663Z,100996.27
2017-06-12T05:08:35.207Z,101001.91
2017-06-12T05:11:02.934Z,100997.03
2017-06-12T05:13:30.460Z,101002.70
2017-06-12T05:15:58.151Z,101007.13
2017-06-12T05:18:25.683Z,101011.37
2017-06-12T05:20:53.247Z,101015.69
2017-06-12T05:23:21.017Z,101024.50
2017-06-12T05:25:48.706Z,101020.39
2017-06-12T05:28:16.210Z,101019.42
2017-06-12T05:30:43.762Z,101026.19
2017-06-12T05:33:11.289Z,101026.86
2017-06-12T05:35:38.904Z,101027.61
2017-06-12T05:38:06.431Z,101026.57
2017-06-12T05:40:33.944Z,101024.66
2017-06-12T05:43:01.556Z,101035.78
2017-06-12T05:45:29.072Z,101033.58
2017-06-12T05:47:57.596Z,101036.86
2017-06-12T05:50:25.099Z,101043.24
2017-06-12T05:52:53.387Z,101043.78
2017-06-12T05:55:21.051Z,101049.19
2017-06-12T05:57:49.943Z,101061.06
2017-06-12T06:00:17.594Z,101061.84
2017-06-12T06:02:45.137Z,101066.58
2017-06-12T06:05:12.676Z,101070.13
2017-06-12T06:07:40.243Z,101071.69
2017-06-12T06:10:07.810Z,101071.09
2017-06-12T06:12:35.338Z,101068.20
2017-06-12T06:15:02.878Z,101080.72
2017-06-12T06:17:30.453Z,101076.55
2017-06-12T06:19:57.973Z,101078.38
2017-06-12T06:22:25.526Z,101073.47
2017-06-12T06:24:53.041Z,101080.71
2017-06-12T06:27:20.589Z,101078.20
2017-06-12T06:29:48.149Z,101081.67
2017-06-12T06:32:15.664Z,101081.29
2017-06-12T06:34:43.204Z,101069.06
2017-06-12T06:37:10.731Z,101070.63
2017-06-12T06:39:38.394Z,101069.25
2017-06-12T06:42:05.900Z,101075.13
2017-06-12T06:44:33.407Z,101082.13
2017-06-12T06:47:00.969Z,101075.95
2017-06-12T06:49:28.492Z,101083.32
2017-06-12T06:51:56.052Z,101076.94
2017-06-12T06:54:23.554Z,101073.36
2017-06-12T06:56:51.296Z,101080.70
2017-06-12T06:59:18.815Z,101085.70
2017-06-12T07:01:46.347Z,101088.41
2017-06-12T07:04:13.967Z,101081.12
2017-06-12T07:06:41.568Z,101083.63
2017-06-12T07:09:09.127Z,101086.47
2017-06-12T07:11:36.638Z,101076.60
2017-06-12T07:14:04.198Z,101081.48
2017-06-12T07:16:31.705Z,101088.14
2017-06-12T07:18:59.459Z,101089.28
2017-06-12T07:21:26.996Z,101100.56
2017-06-12T07:23:54.507Z,101091.45
2017-06-12T07:26:22.084Z,101103.08
2017-06-12T07:28:49.651Z,101107.26
2017-06-12T07:31:17.314Z,101098.64
2017-06-12T07:33:44.867Z,101105.59
2017-06-12T07:36:12.527Z,101111.55
2017-06-12T07:38:40.051Z,101115.95
2017-06-12T07:41:07.588Z,101113.50
2017-06-12T07:43:35.143Z,101110.08
2017-06-12T07:46:02.652Z,101113.28
2017-06-12T07:48:30.230Z,101123.73
2017-06-12T07:50:57.858Z,101117.61
2017-06-12T07:53:25.362Z,101120.88
2017-06-12T07:55:52.968Z,101121.48
2017-06-12T07:58:20.483Z,101116.14
2017-06-12T08:00:48.035Z,101124.22
2017-06-12T08:03:15.663Z,101118.44
2017-06-12T08:05:43.207Z,101125.57
2017-06-12T08:08:10.723Z,101123.42
2017-06-12T08:10:38.283Z,101117.89
2017-06-12T08:13:05.800Z,101121.48
2017-06-12T08:15:33.307Z,101141.80
2017-06-12T08:18:00.863Z,101124.76
2017-06-12T08:20:28.367Z,101128.58
2017-06-12T08:22:55.927Z,101122.63
2017-06-12T08:25:23.452Z,101125.56
2017-06-12T08:27:50.959Z,101132.33
2017-06-12T08:30:18.711Z,101130.36
2017-06-12T08:32:46.219Z,101130.77
2017-06-12T08:35:13.759Z,101127.84
2017-06-12T08:37:41.350Z,101131.91
2017-06-12T08:40:08.863Z,101144.00
2017-06-12T08:42:36.376Z,101150.00
2017-06-12T08:45:04.135Z,101143.73
2017-06-12T08:47:31.662Z,101141.82
2017-06-12T08:49:59.294Z,101159.11
2017-06-12T08:52:26.863Z,101153.42
2017-06-12T08:54:54.384Z,101159.16
2017-06-12T08:57:22.106Z,101155.77
2017-06-12T08:59:49.649Z,101150.17
2017-06-12T09:02:17.244Z,101162.41
2017-06-12T09:04:44.807Z,101158.33
2017-06-12T09:07:12.383Z,101160.22
2017-06-12T09:09:39.948Z,101143.09
2017-06-12T09:12:07.511Z,101154.05
2017-06-12T09:14:35.067Z,101153.30
2017-06-12T09:17:02.602Z,101154.46
2017-06-12T09:19:30.303Z,101143.46
2017-06-12T09:21:57.934Z,101152.42
2017-06-12T09:24:25.518Z,101154.88
2017-06-12T09:26:53.128Z,101159.39
2017-06-12T09:29:20.659Z,101159.76
2017-06-12T09:31:48.252Z,101174.00
2017-06-12T09:34:15.819Z,101160.13
2017-06-12T09:36:43.414Z,101159.03
2017-06-12T09:39:11.014Z,101166.06
2017-06-12T09:41:38.598Z,101166.59
2017-06-12T09:44:06.222Z,101166.66
2017-06-12T09:46:33.735Z,101185.86
2017-06-12T09:49:01.326Z,101173.92
2017-06-12T09:51:28.995Z,101166.41
2017-06-12T09:53:56.527Z,101174.79
2017-06-12T09:56:24.072Z,101173.98
2017-06-12T09:58:51.599Z,101176.19
2017-06-12T10:01:19.198Z,101181.62
2017-06-12T10:03:46.734Z,101186.27
2017-06-12T10:06:14.608Z,101197.83
2017-06-12T10:08:42.365Z,101182.53
2017-06-12T10:11:09.959Z,101186.17
2017-06-12T10:13:37.701Z,101181.31
2017-06-12T10:16:05.236Z,101180.94
2017-06-12T10:18:32.821Z,101189.11
2017-06-12T10:21:00.363Z,101192.70
2017-06-12T10:23:28.062Z,101186.59
2017-06-12T10:25:55.635Z,101191.97
2017-06-12T10:28:23.158Z,101192.33
2017-06-12T10:30:50.828Z,101197.47
2017-06-12T10:33:18.344Z,101197.36
2017-06-12T10:35:45.845Z,101217.93
2017-06-12T10:38:13.407Z,101211.00
2017-06-12T10:40:41.122Z,101211.24
2017-06-12T10:43:08.703Z,101198.80
2017-06-12T10:45:36.265Z,101202.82
2017-06-12T10:48:03.787Z,101220.52
2017-06-12T10:50:31.299Z,101222.00
2017-06-12T10:52:58.843Z,101216.20
2017-06-12T10:55:26.366Z,101229.47
2017-06-12T10:57:54.342Z,101208.61
2017-06-12T11:00:21.843Z,101208.70
2017-06-12T11:02:49.375Z,101226.09
2017-06-12T11:05:17.019Z,101202.81
2017-06-12T11:07:44.600Z,101211.12
2017-06-12T11:10:12.174Z,101194.14
2017-06-12T11:12:39.687Z,101201.06
2017-06-12T11:15:07.255Z,101214.41
2017-06-12T11:17:34.799Z,101214.94
2017-06-12T11:20:02.360Z,101202.80
2017-06-12T11:22:35.640Z,101200.58
2017-06-12T11:25:06.134Z,101200.61
2017-06-12T11:27:33.739Z,101208.18
2017-06-12T11:30:01.355Z,101207.67
2017-06-12T11:32:28.979Z,101203.14
2017-06-12T11:34:56.515Z,101201.84
2017-06-12T11:37:24.434Z,101208.52
2017-06-12T11:39:51.971Z,101196.41
2017-06-12T11:42:19.528Z,101206.11
2017-06-12T11:44:47.070Z,101201.06
2017-06-12T11:47:14.630Z,101201.17
2017-06-12T11:49:42.179Z,101198.47
2017-06-12T11:52:09.690Z,101203.59
2017-06-12T11:54:37.214Z,101216.98
2017-06-12T11:57:04.764Z,101224.89
2017-06-12T11:59:32.281Z,101205.34
2017-06-12T12:01:59.870Z,101203.14
2017-06-12T12:04:27.470Z,101205.97
2017-06-12T12:06:55.112Z,101222.11
2017-06-12T12:09:22.687Z,101213.88
2017-06-12T12:11:50.259Z,101210.14
2017-06-12T12:14:17.795Z,101221.19
2017-06-12T12:16:45.307Z,101215.77
2017-06-12T12:19:12.860Z,101226.21
2017-06-12T12:21:40.375Z,101216.44
2017-06-12T12:24:08.035Z,101214.04
2017-06-12T12:26:35.544Z,101214.69
2017-06-12T12:29:03.052Z,101213.44
2017-06-12T12:31:30.625Z,101216.55
2017-06-12T12:33:58.167Z,101220.91
2017-06-12T12:36:25.715Z,101219.19
2017-06-12T12:38:53.247Z,101223.20
2017-06-12T12:41:20.823Z,101230.92
2017-06-12T12:43:48.342Z,101219.84
2017-06-12T12:46:15.932Z,101237.89
2017-06-12T12:48:43.491Z,101231.73
2017-06-12T12:51:10.992Z,101231.80
2017-06-12T12:53:38.582Z,101235.54
2017-06-12T12:56:06.107Z,101238.44
2017-06-12T12:58:33.831Z,101240.11
2017-06-12T13:01:01.367Z,101243.27
2017-06-12T13:03:28.901Z,101237.02
2017-06-12T13:05:56.471Z,101245.78
2017-06-12T13:08:24.004Z,101246.06
2017-06-12T13:10:51.580Z,101252.62
2017-06-12T13:13:19.303Z,101258.91
2017-06-12T13:15:46.817Z,101259.71
2017-06-12T13:18:14.388Z,101262.11
2017-06-12T13:20:41.906Z,101271.50
2017-06-12T13:23:09.462Z,101258.80
2017-06-12T13:25:36.985Z,101264.19
2017-06-12T13:28:04.543Z,101257.63
2017-06-12T13:30:32.084Z,101252.30
2017-06-12T13:32:59.715Z,101260.27
2017-06-12T13:35:27.226Z,101247.01
2017-06-12T13:37:54.763Z,101256.50
2017-06-12T13:40:22.325Z,101262.79
2017-06-12T13:42:49.837Z,101249.53
2017-06-12T13:45:17.406Z,101260.00
2017-06-12T13:47:45.112Z,101252.72
2017-06-12T13:50:12.619Z,101254.28
2017-06-12T13:52:40.179Z,101251.00
2017-06-12T13:55:07.690Z,101258.53
2017-06-12T13:57:35.217Z,101259.49
2017-06-12T14:00:02.782Z,101256.38
2017-06-12T14:02:30.293Z,101264.17
2017-06-12T14:04:57.866Z,101256.57
2017-06-12T14:07:25.383Z,101261.70
2017-06-12T14:09:52.970Z,101260.52
2017-06-12T14:12:20.489Z,101255.78
2017-06-12T14:14:48.089Z,101261.67
2017-06-12T14:17:15.632Z,101262.49
2017-06-12T14:19:43.144Z,101263.33
2017-06-12T14:22:10.708Z,101262.98
2017-06-12T14:24:38.290Z,101262.24
2017-06-12T14:27:05.925Z,101270.56
2017-06-12T14:29:33.486Z,101265.80
2017-06-12T14:32:01.087Z,101258.09
2017-06-12T14:34:28.642Z,101259.24
2017-06-12T14:36:56.176Z,101272.52
2017-06-12T14:39:23.895Z,101265.13
2017-06-12T14:41:51.459Z,101268.52
2017-06-12T14:44:19.083Z,101266.92
2017-06-12T14:46:46.600Z,101266.06
2017-06-12T14:49:14.247Z,101271.44
2017-06-12T14:51:41.839Z,101273.33
2017-06-12T14:54:09.527Z,101270.92
2017-06-12T14:56:37.055Z,101269.59
2017-06-12T14:59:04.583Z,101273.44
2017-06-12T15:01:32.168Z,101274.51
2017-06-12T15:03:59.699Z,101264.16
2017-06-12T15:06:27.556Z,101270.20
2017-06-12T15:08:55.074Z,101272.05
2017-06-12T15:11:22.651Z,101273.34
2017-06-12T15:13:50.240Z,101275.54
2017-06-12T15:16:17.816Z,101277.37
2017-06-12T15:18:45.431Z,101283.83
2017-06-12T15:21:12.949Z,101274.53
2017-06-12T15:23:40.532Z,101278.45
2017-06-12T15:26:08.044Z,101272.66
2017-06-12T15:28:35.638Z,101277.69
2017-06-12T15:31:03.176Z,101284.03
2017-06-12T15:33:30.807Z,101274.75
2017-06-12T15:35:58.377Z,101277.86
2017-06-12T15:38:25.898Z,101283.83
2017-06-12T15:40:53.476Z,101275.55
2017-06-12T15:43:20.992Z,101275.07
2017-06-12T15:45:48.564Z,101275.41
2017-06-12T15:48:16.159Z,101288.48
2017-06-12T15:50:43.723Z,101274.56
2017-06-12T15:53:11.338Z,101271.47
2017-06-12T15:55:38.879Z,101269.47
2017-06-12T15:58:06.586Z,101275.07
2017-06-12T16:00:34.115Z,101259.61
2017-06-12T16:03:01.636Z,101266.75
2017-06-12T16:05:29.199Z,101271.09
2017-06-12T16:07:56.790Z,101266.81
2017-06-12T16:10:24.367Z,101263.09
2017-06-12T16:12:51.924Z,101262.61
2017-06-12T16:15:19.582Z,101271.42
2017-06-12T16:17:47.107Z,101264.41
2017-06-12T16:20:14.623Z,101265.80
2017-06-12T16:22:42.190Z,101271.28
2017-06-12T16:25:09.703Z,101265.50
2017-06-12T16:27:37.264Z,101260.33
2017-06-12T16:30:04.815Z,101265.31
2017-06-12T16:32:32.389Z,101270.70
2017-06-12T16:35:00.002Z,101264.73
2017-06-12T16:37:27.563Z,101265.34
2017-06-12T16:39:55.086Z,101257.03
2017-06-12T16:42:22.596Z,101249.79
2017-06-12T16:44:50.162Z,101260.55
2017-06-12T16:47:17.712Z,101259.82
2017-06-12T16:49:45.291Z,101255.70
2017-06-12T16:52:12.815Z,101253.38
2017-06-12T16:54:40.382Z,101265.80
2017-06-12T16:57:07.891Z,101265.80
2017-06-12T16:59:35.453Z,101268.84
2017-06-12T17:02:03.082Z,101273.24
2017-06-12T17:04:30.682Z,101268.48
2017-06-12T17:06:58.239Z,101266.70
2017-06-12T17:09:25.767Z,101265.97
2017-06-12T17:11:53.550Z,101265.35
2017-06-12T17:14:22.332Z,101264.57
2017-06-12T17:16:50.017Z,101270.72
2017-06-12T17:19:17.675Z,101266.87
2017-06-12T17:21:45.225Z,101266.59
2017-06-12T17:24:12.904Z,101266.17
2017-06-12T17:26:40.430Z,101274.91
2017-06-12T17:29:08.180Z,101275.06
2017-06-12T17:31:35.782Z,101281.39
2017-06-12T17:34:03.403Z,101273.45
2017-06-12T17:36:31.063Z,101271.41
2017-06-12T17:38:58.596Z,101276.16
2017-06-12T17:41:26.173Z,101272.03
2017-06-12T17:43:53.744Z,101282.97
2017-06-12T17:46:21.352Z,101281.65
2017-06-12T17:48:48.922Z,101285.95
2017-06-12T17:51:16.428Z,101283.08
2017-06-12T17:53:44.359Z,101292.41
2017-06-12T17:56:11.899Z,101285.47
2017-06-12T17:58:39.484Z,101288.91
2017-06-12T18:01:07.011Z,101289.88
2017-06-12T18:03:34.543Z,101298.38
2017-06-12T18:06:02.153Z,101300.30
2017-06-12T18:08:29.840Z,101287.97
2017-06-12T18:10:57.475Z,101293.51
2017-06-12T18:13:25.052Z,101300.12
2017-06-12T18:15:52.579Z,101297.20
2017-06-12T18:18:20.159Z,101298.51
2017-06-12T18:20:47.678Z,101299.82
2017-06-12T18:23:15.235Z,101295.70
2017-06-12T18:25:42.763Z,101303.44
2017-06-12T18:28:10.368Z,101298.95
2017-06-12T18:30:37.891Z,101301.38
2017-06-12T18:33:05.401Z,101305.75
2017-06-12T18:35:32.962Z,101311.78
2017-06-12T18:38:00.482Z,101303.30
2017-06-12T18:40:28.043Z,101307.95
2017-06-12T18:42:55.663Z,101311.19
2017-06-12T18:45:23.389Z,101309.52
2017-06-12T18:47:50.903Z,101316.27
2017-06-12T18:50:18.431Z,101307.77
2017-06-12T18:52:46.103Z,101305.56
2017-06-12T18:55:13.611Z,101305.97
2017-06-12T18:57:41.200Z,101310.12
2017-06-12T19:00:08.721Z,101311.39
2017-06-12T19:02:36.435Z,101316.91
2017-06-12T19:05:03.964Z,101312.39
2017-06-12T19:07:31.521Z,101308.70
2017-06-12T19:09:59.081Z,101316.16
2017-06-12T19:12:26.700Z,101310.77
2017-06-12T19:14:54.272Z,101314.52
2017-06-12T19:17:21.799Z,101314.52
2017-06-12T19:19:49.551Z,101304.75
2017-06-12T19:22:17.082Z,101311.52
2017-06-12T19:24:44.738Z,101313.43
2017-06-12T19:27:12.360Z,101312.94
2017-06-12T19:29:39.943Z,101314.71
2017-06-12T19:32:07.476Z,101308.66
2017-06-12T19:34:35.112Z,101312.66
2017-06-12T19:37:02.634Z,101311.26
2017-06-12T19:39:30.218Z,101305.20
2017-06-12T19:41:57.736Z,101311.26
2017-06-12T19:44:25.346Z,101308.70
2017-06-12T19:46:52.931Z,101316.89
2017-06-12T19:49:20.467Z,101314.24
2017-06-12T19:51:48.124Z,101314.97
2017-06-12T19:54:15.644Z,101317.96
2017-06-12T19:56:43.240Z,101324.16
2017-06-12T19:59:10.762Z,101315.75
2017-06-12T20:01:38.282Z,101329.33
2017-06-12T20:04:05.833Z,101327.81
2017-06-12T20:06:33.365Z,101334.41
2017-06-12T20:09:00.933Z,101339.08
2017-06-12T20:11:28.441Z,101339.65
2017-06-12T20:13:56.014Z,101345.03
2017-06-12T20:16:23.529Z,101346.58
2017-06-12T20:18:51.483Z,101346.42
2017-06-12T20:21:18.975Z,101344.31
2017-06-12T20:23:46.511Z,101345.82
2017-06-12T20:26:14.070Z,101351.40
2017-06-12T20:28:41.641Z,101348.08
2017-06-12T20:31:09.512Z,101350.79
2017-06-12T20:33:37.051Z,101348.45
2017-06-12T20:36:04.822Z,101349.71
2017-06-12T20:38:32.446Z,101349.06
2017-06-12T20:41:00.127Z,101345.78
2017-06-12T20:43:27.875Z,101358.44
2017-06-12T20:45:55.407Z,101356.14
2017-06-12T20:48:23.114Z,101353.13
2017-06-12T20:50:50.671Z,101359.72
2017-06-12T20:53:18.183Z,101363.58
2017-06-12T20:55:45.754Z,101353.87
2017-06-12T20:58:13.273Z,101359.73
2017-06-12T21:00:40.865Z,101357.09
2017-06-12T21:03:08.379Z,101357.78
2017-06-12T21:05:35.930Z,101355.84
2017-06-12T21:08:03.515Z,101358.55
2017-06-12T21:10:31.049Z,101360.55
2017-06-12T21:12:58.587Z,101355.28
2017-06-12T21:15:26.412Z,101355.89
2017-06-12T21:17:54.133Z,101361.20
2017-06-12T21:20:21.672Z,101366.22
2017-06-12T21:22:49.199Z,101369.77
2017-06-12T21:25:16.892Z,101366.11
2017-06-12T21:27:44.403Z,101366.67
2017-06-12T21:30:11.952Z,101366.72
2017-06-12T21:32:40.223Z,101369.99
2017-06-12T21:35:07.935Z,101364.11
2017-06-12T21:37:35.593Z,101368.97
2017-06-12T21:40:03.147Z,101362.73
2017-06-12T21:42:30.799Z,101366.06
2017-06-12T21:44:58.386Z,101359.68
2017-06-12T21:47:25.985Z,101361.84
2017-06-12T21:49:53.537Z,101360.16
2017-06-12T21:52:21.235Z,101359.18
2017-06-12T21:54:48.759Z,101361.34
2017-06-12T21:57:16.328Z,101361.73
2017-06-12T21:59:43.896Z,101358.14
2017-06-12T22:02:11.462Z,101362.87
2017-06-12T22:04:40.492Z,101365.80
2017-06-12T22:07:08.004Z,101367.42
2017-06-12T22:09:36.607Z,101371.19
2017-06-12T22:12:04.172Z,101368.95
2017-06-12T22:14:31.675Z,101366.95
2017-06-12T22:16:59.218Z,101368.05
2017-06-12T22:19:26.729Z,101364.74
2017-06-12T22:21:54.279Z,101372.72
2017-06-12T22:24:21.800Z,101372.70
2017-06-12T22:26:49.419Z,101367.09
2017-06-12T22:29:16.949Z,101365.16
2017-06-12T22:31:44.607Z,101364.39
2017-06-12T22:34:12.201Z,101372.11
2017-06-12T22:36:39.725Z,101366.78
2017-06-12T22:39:07.231Z,101370.45
2017-06-12T22:41:34.796Z,101367.66
2017-06-12T22:44:02.319Z,101366.72
2017-06-12T22:46:29.861Z,101366.16
2017-06-12T22:48:57.421Z,101373.34
2017-06-12T22:51:24.986Z,101372.22
2017-06-12T22:53:52.506Z,101373.28
2017-06-12T22:56:20.008Z,101374.88
2017-06-12T22:58:47.570Z,101371.43
2017-06-12T23:01:15.099Z,101361.53
2017-06-12T23:03:42.651Z,101357.47
2017-06-12T23:06:10.167Z,101356.50
2017-06-12T23:08:37.730Z,101360.94
2017-06-12T23:11:05.261Z,101362.23
2017-06-12T23:13:32.827Z,101359.50
2017-06-12T23:16:00.345Z,101362.36
2017-06-12T23:18:27.906Z,101360.88
2017-06-12T23:20:55.423Z,101354.88
2017-06-12T23:23:22.975Z,101350.09
2017-06-12T23:25:55.976Z,101348.39
2017-06-12T23:28:23.487Z,101351.96
2017-06-12T23:30:51.070Z,101348.69
2017-06-12T23:33:18.587Z,101345.56
2017-06-12T23:35:46.201Z,101344.89
2017-06-12T23:38:13.721Z,101349.22
2017-06-12T23:40:41.221Z,101344.25
2017-06-12T23:43:08.767Z,101342.16
2017-06-12T23:45:36.293Z,101342.36
2017-06-12T23:48:03.911Z,101344.63
2017-06-12T23:50:31.444Z,101347.31
2017-06-12T23:52:59.061Z,101342.13
2017-06-12T23:55:26.647Z,101339.71
2017-06-12T23:57:54.173Z,101341.92
